Time;durP1;ratioP1;P1;durP2;ratioP2;P2;SDS_P1;SDS_P2;PMS_P1;PMS_P2;Temp;Humidity;BMP_temperature;BMP_pressure;BME280_temperature;BME280_humidity;BME280_pressure;Samples;Min_cycle;Max_cycle;Signal;HPM_P1;HPM_P2
2023/12/17 05:30:27;;;;;;;0.10;0.10;;;3.70;85.30;;;;;;5867180;23;20130;-75
2023/12/17 05:32:53;;;;;;;0.10;0.10;;;3.60;85.30;;;;;;4919061;29;20043;-76
2023/12/17 05:35:19;;;;;;;0.20;0.20;;;3.70;85.20;;;;;;4938266;29;20028;-76
2023/12/17 05:37:44;;;;;;;0.20;0.20;;;3.60;85.10;;;;;;4939247;29;20024;-76
2023/12/17 05:40:10;;;;;;;0.20;0.20;;;3.60;85.00;;;;;;4943265;29;20090;-75
2023/12/17 05:42:36;;;;;;;0.10;0.10;;;3.60;85.00;;;;;;4958110;29;20047;-76
2023/12/17 05:45:02;;;;;;;0.10;0.10;;;3.60;85.10;;;;;;4942686;29;20074;-75
2023/12/17 05:47:28;;;;;;;0.20;0.20;;;3.50;84.90;;;;;;4922040;29;20033;-76
2023/12/17 05:49:54;;;;;;;0.13;0.13;;;3.60;85.10;;;;;;4938409;29;20028;-76
2023/12/17 05:52:19;;;;;;;0.10;0.10;;;3.50;85.10;;;;;;4938863;29;20106;-76
2023/12/17 05:54:45;;;;;;;0.20;0.20;;;3.50;85.00;;;;;;4925336;29;20059;-76
2023/12/17 05:57:10;;;;;;;0.10;0.10;;;3.50;85.00;;;;;;4902647;29;20126;-76
2023/12/17 05:59:36;;;;;;;0.10;0.10;;;3.50;85.00;;;;;;4919611;29;20107;-75
2023/12/17 06:02:02;;;;;;;0.10;0.10;;;3.50;85.10;;;;;;4918101;29;20042;-75
2023/12/17 06:04:27;;;;;;;0.10;0.10;;;3.40;85.20;;;;;;4921871;29;20035;-76
2023/12/17 06:06:55;;;;;;;0.13;0.13;;;3.40;84.90;;;;;;4938672;29;20028;-75
2023/12/17 06:09:22;;;;;;;0.10;0.10;;;3.40;84.90;;;;;;4921474;29;20054;-75
2023/12/17 06:11:48;;;;;;;0.13;0.13;;;3.40;85.20;;;;;;4924842;29;20110;-76
2023/12/17 06:14:13;;;;;;;0.20;0.20;;;3.30;84.90;;;;;;4919943;29;20070;-75
2023/12/17 06:16:42;;;;;;;0.15;0.15;;;3.30;84.90;;;;;;4902512;29;20080;-76
2023/12/17 06:19:08;;;;;;;0.10;0.10;;;3.30;85.00;;;;;;4919602;29;20092;-75
2023/12/17 06:21:34;;;;;;;0.15;0.15;;;3.30;84.90;;;;;;4919958;29;20518;-76
2023/12/17 06:24:01;;;;;;;0.10;0.10;;;3.40;84.70;;;;;;4919425;29;20079;-76
2023/12/17 06:26:27;;;;;;;0.20;0.20;;;3.30;84.60;;;;;;4932505;29;20098;-76
2023/12/17 06:28:53;;;;;;;0.17;0.17;;;3.30;84.70;;;;;;4920981;29;20036;-75
2023/12/17 06:31:19;;;;;;;0.10;0.10;;;3.30;84.60;;;;;;4923647;29;20056;-75
2023/12/17 06:33:45;;;;;;;0.10;0.10;;;3.30;84.50;;;;;;4935829;29;20035;-75
2023/12/17 06:36:11;;;;;;;0.10;0.10;;;3.20;84.70;;;;;;4934579;29;20061;-76
2023/12/17 06:38:38;;;;;;;0.17;0.17;;;3.20;84.50;;;;;;4938244;29;20031;-75
2023/12/17 06:41:04;;;;;;;0.20;0.20;;;3.30;84.50;;;;;;4950598;29;20030;-75
2023/12/17 06:43:29;;;;;;;0.20;0.20;;;3.30;84.40;;;;;;4941763;29;20023;-75
2023/12/17 06:45:55;;;;;;;0.10;0.10;;;3.20;84.20;;;;;;4947785;29;20056;-75
2023/12/17 06:48:20;;;;;;;0.10;0.10;;;3.20;84.20;;;;;;4944477;29;20019;-75
2023/12/17 06:50:46;;;;;;;0.20;0.20;;;3.20;84.30;;;;;;4947873;29;20046;-75
2023/12/17 06:53:15;;;;;;;0.20;0.20;;;3.10;84.30;;;;;;4947418;29;20035;-75
2023/12/17 06:55:42;;;;;;;0.10;0.10;;;3.10;84.30;;;;;;4946638;29;20053;-75
2023/12/17 06:58:08;;;;;;;0.20;0.20;;;3.10;84.20;;;;;;4929442;29;20038;-75
2023/12/17 07:00:34;;;;;;;0.20;0.20;;;3.10;84.10;;;;;;4946581;29;20675;-75
2023/12/17 07:03:00;;;;;;;0.15;0.15;;;3.00;84.10;;;;;;4929667;29;20035;-75
2023/12/17 07:05:26;;;;;;;0.10;0.10;;;3.00;84.10;;;;;;4943825;29;20065;-75
2023/12/17 07:07:51;;;;;;;0.20;0.20;;;2.90;84.20;;;;;;4947375;29;20020;-76
2023/12/17 07:10:17;;;;;;;0.13;0.13;;;2.90;84.30;;;;;;4945970;29;20051;-75
2023/12/17 07:12:43;;;;;;;0.10;0.10;;;2.80;84.20;;;;;;4926687;29;20039;-75
2023/12/17 07:15:09;;;;;;;0.10;0.10;;;2.80;84.40;;;;;;4940021;29;20038;-77
2023/12/17 07:17:35;;;;;;;0.20;0.20;;;2.80;84.40;;;;;;4941554;29;20047;-76
2023/12/17 07:20:01;;;;;;;0.10;0.10;;;2.90;84.50;;;;;;4941849;29;20032;-76
2023/12/17 07:22:26;;;;;;;0.10;0.10;;;2.80;84.40;;;;;;4936833;29;20036;-75
2023/12/17 07:24:52;;;;;;;0.10;0.10;;;2.80;84.50;;;;;;4922571;29;20036;-75
2023/12/17 07:27:17;;;;;;;0.10;0.10;;;2.80;84.50;;;;;;4922608;29;20028;-75
2023/12/17 07:29:43;;;;;;;0.20;0.20;;;2.80;84.50;;;;;;4922909;29;20040;-75
2023/12/17 07:32:09;;;;;;;0.10;0.10;;;2.80;84.50;;;;;;4922274;29;20052;-75
2023/12/17 07:34:34;;;;;;;0.20;0.20;;;2.80;84.30;;;;;;4925658;29;20063;-78
2023/12/17 07:37:00;;;;;;;0.10;0.10;;;2.80;84.30;;;;;;4941377;29;20039;-77
2023/12/17 07:39:26;;;;;;;0.20;0.20;;;2.80;84.20;;;;;;4941240;29;20028;-76
2023/12/17 07:41:52;;;;;;;0.20;0.20;;;2.70;84.30;;;;;;4928188;29;20420;-77
2023/12/17 07:44:18;;;;;;;0.10;0.10;;;2.80;84.20;;;;;;4922403;29;20024;-75
2023/12/17 07:46:44;;;;;;;0.20;0.20;;;2.70;84.20;;;;;;4922090;29;20032;-78
2023/12/17 07:49:10;;;;;;;0.10;0.10;;;2.70;84.40;;;;;;4936235;29;20122;-76
2023/12/17 07:51:38;;;;;;;0.20;0.20;;;2.70;84.00;;;;;;4940993;29;20040;-76
2023/12/17 07:54:04;;;;;;;0.10;0.10;;;2.70;84.10;;;;;;4925076;29;20032;-79
2023/12/17 07:56:31;;;;;;;0.20;0.20;;;2.70;83.90;;;;;;4921900;29;20051;-77
2023/12/17 07:58:56;;;;;;;0.10;0.10;;;2.70;84.60;;;;;;4920538;29;20032;-76
2023/12/17 08:01:30;;;;;;;0.20;0.20;;;2.70;84.80;;;;;;4915372;29;20050;-75
2023/12/17 08:03:56;;;;;;;0.20;0.20;;;2.80;85.10;;;;;;4940928;29;20106;-77
2023/12/17 08:06:21;;;;;;;0.20;0.20;;;2.90;85.10;;;;;;4932607;29;20072;-76
2023/12/17 08:08:47;;;;;;;0.10;0.10;;;3.00;85.00;;;;;;4916762;29;20036;-79
2023/12/17 08:11:13;;;;;;;0.10;0.10;;;3.00;85.00;;;;;;4932875;29;20044;-80
2023/12/17 08:13:39;;;;;;;0.10;0.10;;;3.00;85.20;;;;;;4938617;29;20034;-81
2023/12/17 08:16:05;;;;;;;0.10;0.10;;;3.00;84.50;;;;;;4939994;29;20036;-78
2023/12/17 08:18:31;;;;;;;0.10;0.10;;;2.80;84.30;;;;;;4927072;29;20039;-78
2023/12/17 08:20:57;;;;;;;0.10;0.10;;;2.70;85.00;;;;;;4933350;29;20482;-78
2023/12/17 08:23:23;;;;;;;0.10;0.10;;;2.60;84.70;;;;;;4914266;29;20083;-78
2023/12/17 08:25:49;;;;;;;0.20;0.20;;;2.30;84.70;;;;;;4931554;29;20032;-78
2023/12/17 08:28:16;;;;;;;0.10;0.10;;;2.10;85.30;;;;;;4930597;29;20031;-78
2023/12/17 08:30:41;;;;;;;0.10;0.10;;;2.10;86.00;;;;;;4914255;29;20407;-78
2023/12/17 08:33:07;;;;;;;0.10;0.10;;;2.00;85.70;;;;;;4931952;29;20016;-78
2023/12/17 08:35:34;;;;;;;0.20;0.20;;;2.10;86.20;;;;;;4934946;29;20032;-78
2023/12/17 08:38:05;;;;;;;0.10;0.10;;;2.20;86.20;;;;;;4940267;29;20482;-77
2023/12/17 08:40:33;;;;;;;0.10;0.10;;;2.10;85.60;;;;;;4946169;29;20039;-78
2023/12/17 08:42:59;;;;;;;0.13;0.13;;;2.00;86.10;;;;;;4935219;28;20056;-78
2023/12/17 08:45:25;;;;;;;0.10;0.10;;;2.00;86.00;;;;;;4934959;29;20063;-78
2023/12/17 08:47:50;;;;;;;0.17;0.17;;;2.10;86.20;;;;;;4937462;29;20034;-82
2023/12/17 08:50:16;;;;;;;0.10;0.10;;;2.00;86.20;;;;;;4939825;29;20167;-84
2023/12/17 08:52:42;;;;;;;0.10;0.10;;;2.00;86.10;;;;;;4927454;29;20506;-79
2023/12/17 08:55:07;;;;;;;0.10;0.10;;;2.00;86.10;;;;;;4932191;29;20128;-77
2023/12/17 08:57:33;;;;;;;0.10;0.10;;;2.10;86.10;;;;;;4924575;29;21722;-83
2023/12/17 08:59:59;;;;;;;0.10;0.10;;;2.20;86.40;;;;;;4927403;29;20036;-78
2023/12/17 09:02:24;;;;;;;0.20;0.20;;;2.30;86.40;;;;;;4934557;29;20036;-81
2023/12/17 09:04:52;;;;;;;0.20;0.20;;;2.40;85.70;;;;;;4933906;29;20099;-81
2023/12/17 09:07:18;;;;;;;0.10;0.10;;;2.50;85.90;;;;;;4937941;29;20016;-80
2023/12/17 09:09:44;;;;;;;0.10;0.10;;;2.40;85.80;;;;;;4938071;29;20467;-78
2023/12/17 09:12:09;;;;;;;0.10;0.10;;;2.50;86.00;;;;;;4923545;29;20055;-81
2023/12/17 09:14:36;;;;;;;0.20;0.20;;;2.40;85.70;;;;;;4931457;29;20478;-80
2023/12/17 09:17:05;;;;;;;0.20;0.20;;;2.40;86.00;;;;;;4930676;29;20059;-79
2023/12/17 09:19:30;;;;;;;0.20;0.20;;;2.30;85.80;;;;;;4928278;29;20035;-78
2023/12/17 09:21:56;;;;;;;0.10;0.10;;;2.30;86.40;;;;;;4930211;29;20028;-77
2023/12/17 09:24:21;;;;;;;0.20;0.20;;;2.40;86.40;;;;;;4928327;29;20036;-76
2023/12/17 09:26:47;;;;;;;0.20;0.20;;;2.60;85.80;;;;;;4924550;29;20435;-77
2023/12/17 09:29:12;;;;;;;0.10;0.10;;;2.70;85.80;;;;;;4927259;29;20024;-79
2023/12/17 09:31:39;;;;;;;0.20;0.20;;;2.70;85.80;;;;;;4926668;29;20048;-78
2023/12/17 09:34:06;;;;;;;0.10;0.10;;;2.70;85.40;;;;;;4926152;29;20482;-79
2023/12/17 09:36:32;;;;;;;0.20;0.20;;;2.80;85.80;;;;;;4930427;29;20031;-79
2023/12/17 09:38:58;;;;;;;0.10;0.10;;;2.80;85.60;;;;;;4933116;29;20175;-78
2023/12/17 09:41:24;;;;;;;0.10;0.10;;;2.80;85.50;;;;;;4933808;29;20107;-81
2023/12/17 09:43:50;;;;;;;0.17;0.17;;;2.80;84.70;;;;;;4934436;29;20332;-78
2023/12/17 09:46:16;;;;;;;0.20;0.20;;;2.70;85.00;;;;;;4931214;29;20046;-78
2023/12/17 09:48:42;;;;;;;0.10;0.10;;;2.70;84.90;;;;;;4911906;29;20595;-78
2023/12/17 09:51:08;;;;;;;0.10;0.10;;;2.60;84.70;;;;;;4913184;29;20020;-78
2023/12/17 09:53:35;;;;;;;0.20;0.20;;;2.50;84.90;;;;;;4935398;29;20019;-78
2023/12/17 09:56:00;;;;;;;0.20;0.20;;;2.40;85.40;;;;;;4928167;29;20031;-79
2023/12/17 09:58:26;;;;;;;0.20;0.20;;;2.60;85.80;;;;;;4929328;29;20054;-78
2023/12/17 10:00:53;;;;;;;0.13;0.13;;;2.70;85.00;;;;;;4932532;29;20090;-79
2023/12/17 10:03:19;;;;;;;0.10;0.10;;;2.70;85.50;;;;;;4931273;29;20034;-79
2023/12/17 10:05:52;;;;;;;0.13;0.13;;;2.80;85.50;;;;;;4928362;29;20106;-79
2023/12/17 10:08:18;;;;;;;0.20;0.20;;;2.90;84.90;;;;;;4924786;29;20499;-79
2023/12/17 10:10:44;;;;;;;0.10;0.10;;;2.80;84.40;;;;;;4930188;29;20059;-79
2023/12/17 10:13:15;;;;;;;0.20;0.20;;;2.70;84.80;;;;;;4929247;29;20071;-79
2023/12/17 10:15:42;;;;;;;0.10;0.10;;;2.80;84.70;;;;;;4927742;29;20031;-79
2023/12/17 10:18:08;;;;;;;0.15;0.15;;;2.80;85.20;;;;;;4929020;29;20040;-79
2023/12/17 10:20:34;;;;;;;0.20;0.20;;;2.90;84.60;;;;;;4927650;29;20079;-77
2023/12/17 10:23:03;;;;;;;0.20;0.20;;;3.00;84.90;;;;;;4923845;29;20514;-78
2023/12/17 10:25:29;;;;;;;0.20;0.20;;;3.00;84.90;;;;;;4905177;29;20065;-79
2023/12/17 10:27:59;;;;;;;0.10;0.10;;;3.00;84.90;;;;;;4903872;29;20587;-78
2023/12/17 10:30:29;;;;;;;0.10;0.10;;;3.00;84.20;;;;;;4909988;29;20028;-79
2023/12/17 10:32:56;;;;;;;0.10;0.10;;;3.00;84.60;;;;;;4923799;29;20035;-78
2023/12/17 10:35:25;;;;;;;0.15;0.15;;;3.00;84.70;;;;;;4928291;29;20043;-78
2023/12/17 10:37:58;;;;;;;0.10;0.10;;;3.00;84.60;;;;;;4910303;29;20387;-77
2023/12/17 10:40:25;;;;;;;0.20;0.20;;;3.00;84.30;;;;;;4930059;29;20038;-78
2023/12/17 10:42:53;;;;;;;0.10;0.10;;;3.00;84.50;;;;;;4933339;29;20035;-78
2023/12/17 10:45:20;;;;;;;0.10;0.10;;;3.00;84.30;;;;;;4919816;29;20035;-78
2023/12/17 10:47:57;;;;;;;0.20;0.20;;;3.10;85.00;;;;;;4937488;29;20027;-78
2023/12/17 10:50:24;;;;;;;0.20;0.20;;;3.10;84.40;;;;;;4936688;29;20563;-78
2023/12/17 10:52:50;;;;;;;0.20;0.20;;;3.20;84.50;;;;;;4921891;29;20028;-77
2023/12/17 10:55:17;;;;;;;0.20;0.20;;;3.30;84.70;;;;;;4931736;29;20127;-77
2023/12/17 10:57:49;;;;;;;0.10;0.10;;;3.30;84.40;;;;;;4927371;29;20063;-76
2023/12/17 11:00:18;;;;;;;0.10;0.10;;;3.10;83.60;;;;;;4926148;29;20047;-79
2023/12/17 11:02:50;;;;;;;0.20;0.20;;;3.10;84.60;;;;;;4926993;29;20031;-77
2023/12/17 11:05:15;;;;;;;0.10;0.10;;;3.20;84.60;;;;;;4927236;29;20609;-80
2023/12/17 11:07:41;;;;;;;0.20;0.20;;;3.20;84.30;;;;;;4912161;29;20024;-86
2023/12/17 11:10:10;;;;;;;0.13;0.13;;;3.20;84.60;;;;;;4909693;29;20115;-81
2023/12/17 11:12:36;;;;;;;0.10;0.10;;;3.20;84.70;;;;;;4934914;29;20034;-83
2023/12/17 11:15:02;;;;;;;0.20;0.20;;;3.20;84.50;;;;;;4929565;29;20079;-83
2023/12/17 11:17:28;;;;;;;0.10;0.10;;;3.20;83.80;;;;;;4931834;29;20039;-84
2023/12/17 11:19:59;;;;;;;0.15;0.15;;;3.10;84.90;;;;;;4923939;29;20084;-78
2023/12/17 11:22:28;;;;;;;0.10;0.10;;;3.00;84.70;;;;;;4915576;29;20063;-79
2023/12/17 11:24:55;;;;;;;0.10;0.10;;;3.20;85.10;;;;;;4914782;29;20029;-79
2023/12/17 11:27:22;;;;;;;0.10;0.10;;;3.20;84.40;;;;;;4932780;29;20036;-79
2023/12/17 11:29:52;;;;;;;0.10;0.10;;;3.20;84.90;;;;;;4932787;29;20019;-79
2023/12/17 11:32:26;;;;;;;0.10;0.10;;;3.20;84.90;;;;;;4924406;29;20052;-78
2023/12/17 11:34:53;;;;;;;0.10;0.10;;;3.30;84.90;;;;;;4915291;29;20038;-76
2023/12/17 11:37:20;;;;;;;0.10;0.10;;;3.40;84.50;;;;;;4924221;29;20095;-78
2023/12/17 11:39:48;;;;;;;0.20;0.20;;;3.20;84.00;;;;;;4910347;29;20035;-80
2023/12/17 11:42:14;;;;;;;0.10;0.10;;;3.20;84.60;;;;;;4912123;29;20067;-78
2023/12/17 11:44:44;;;;;;;0.10;0.10;;;3.20;84.20;;;;;;4905445;29;20062;-83
2023/12/17 11:47:14;;;;;;;0.10;0.10;;;3.10;85.40;;;;;;4921789;29;20028;-81
2023/12/17 11:49:40;;;;;;;0.20;0.20;;;3.20;85.20;;;;;;4910042;29;20083;-81
2023/12/17 11:52:14;;;;;;;0.10;0.10;;;3.20;85.10;;;;;;4927792;29;20098;-78
2023/12/17 11:54:42;;;;;;;0.10;0.10;;;3.20;84.70;;;;;;4930385;29;20027;-76
2023/12/17 11:57:23;;;;;;;0.10;0.10;;;3.30;85.30;;;;;;4935568;29;20063;-81
2023/12/17 11:59:50;;;;;;;0.10;0.10;;;3.30;84.70;;;;;;4926557;29;20112;-79
2023/12/17 12:02:20;;;;;;;0.15;0.15;;;3.20;85.10;;;;;;4911331;29;20036;-82
2023/12/17 12:04:46;;;;;;;0.15;0.15;;;3.30;85.00;;;;;;4926500;29;20502;-79
2023/12/17 12:07:17;;;;;;;0.20;0.20;;;3.30;85.00;;;;;;4923453;29;20027;-80
2023/12/17 12:09:47;;;;;;;0.15;0.15;;;3.40;84.70;;;;;;4920132;29;20040;-80
2023/12/17 12:12:26;;;;;;;0.20;0.20;;;3.60;85.10;;;;;;4922197;29;20016;-82
2023/12/17 12:14:53;;;;;;;0.10;0.10;;;3.50;84.30;;;;;;4920721;29;20031;-86
2023/12/17 12:17:41;;;;;;;0.20;0.20;;;3.50;84.80;;;;;;4935113;29;20067;-79
2023/12/17 12:20:13;;;;;;;0.10;0.10;;;3.60;84.40;;;;;;4919363;29;20067;-78
2023/12/17 12:22:45;;;;;;;0.10;0.10;;;3.70;84.50;;;;;;4931734;29;20028;-79
2023/12/17 12:25:12;;;;;;;0.10;0.10;;;3.70;84.10;;;;;;4922356;29;20040;-78
2023/12/17 12:27:38;;;;;;;0.17;0.17;;;3.70;84.10;;;;;;4937355;29;21314;-80
2023/12/17 12:30:05;;;;;;;0.20;0.20;;;3.70;84.40;;;;;;4940472;29;20051;-77
2023/12/17 12:32:32;;;;;;;0.20;0.20;;;3.70;84.50;;;;;;4940508;29;20126;-87
2023/12/17 12:34:58;;;;;;;0.13;0.13;;;3.70;84.60;;;;;;4917576;29;20036;-83
2023/12/17 12:37:36;;;;;;;0.13;0.13;;;3.70;84.40;;;;;;4938115;29;20020;-79
2023/12/17 12:40:05;;;;;;;0.20;0.20;;;3.70;85.00;;;;;;4918230;29;20031;-83
2023/12/17 12:42:31;;;;;;;0.10;0.10;;;3.80;84.70;;;;;;4935036;29;20024;-82
2023/12/17 12:44:57;;;;;;;0.10;0.10;;;3.80;84.80;;;;;;4919998;29;20042;-83
2023/12/17 12:47:23;;;;;;;0.10;0.10;;;3.80;84.70;;;;;;4918748;29;20090;-77
2023/12/17 12:49:49;;;;;;;0.20;0.20;;;3.90;84.60;;;;;;4928034;29;20114;-79
2023/12/17 12:52:16;;;;;;;0.13;0.13;;;4.00;85.00;;;;;;4930840;29;20056;-79
2023/12/17 12:54:42;;;;;;;0.10;0.10;;;4.10;84.70;;;;;;4919070;29;20031;-80
2023/12/17 12:57:08;;;;;;;0.20;0.20;;;4.10;84.10;;;;;;4919562;29;20021;-83
2023/12/17 12:59:34;;;;;;;0.20;0.20;;;4.00;84.60;;;;;;4903683;29;20028;-84
2023/12/17 13:01:59;;;;;;;0.10;0.10;;;3.90;84.20;;;;;;4923831;29;20027;-79
2023/12/17 13:04:25;;;;;;;0.10;0.10;;;3.90;84.80;;;;;;4924241;29;20088;-79
2023/12/17 13:06:51;;;;;;;0.10;0.10;;;3.90;84.30;;;;;;4924298;29;20607;-79
2023/12/17 13:09:16;;;;;;;0.10;0.10;;;3.90;84.50;;;;;;4923710;29;20031;-79
2023/12/17 13:11:42;;;;;;;0.20;0.20;;;3.90;84.20;;;;;;4924441;29;20051;-79
2023/12/17 13:14:08;;;;;;;0.13;0.13;;;3.80;84.50;;;;;;4922754;29;20046;-79
2023/12/17 13:16:36;;;;;;;0.10;0.10;;;3.60;84.80;;;;;;4914501;29;20028;-79
2023/12/17 13:19:02;;;;;;;0.10;0.10;;;3.50;85.40;;;;;;4927894;29;20067;-79
2023/12/17 13:21:27;;;;;;;0.10;0.10;;;3.60;85.70;;;;;;4928215;29;20031;-79
2023/12/17 13:23:53;;;;;;;0.10;0.10;;;3.50;85.80;;;;;;4928642;29;20046;-79
2023/12/17 13:26:19;;;;;;;0.10;0.10;;;3.60;86.20;;;;;;4935383;29;20030;-79
2023/12/17 13:28:44;;;;;;;0.10;0.10;;;3.70;85.80;;;;;;4935584;29;20075;-79
2023/12/17 13:31:10;;;;;;;0.10;0.10;;;3.60;85.70;;;;;;4929867;29;20107;-78
2023/12/17 13:33:35;;;;;;;0.17;0.17;;;3.70;86.00;;;;;;4928172;29;20028;-79
2023/12/17 13:36:03;;;;;;;0.10;0.10;;;3.70;85.80;;;;;;4926866;29;20099;-80
2023/12/17 13:38:29;;;;;;;0.17;0.17;;;3.80;85.70;;;;;;4927067;29;20406;-78
2023/12/17 13:40:54;;;;;;;0.10;0.10;;;3.80;85.70;;;;;;4930026;29;20027;-79
2023/12/17 13:43:22;;;;;;;0.13;0.13;;;3.80;85.60;;;;;;4930170;29;20027;-78
2023/12/17 13:45:47;;;;;;;0.20;0.20;;;3.90;85.80;;;;;;4930340;29;20031;-78
2023/12/17 13:48:15;;;;;;;0.10;0.10;;;3.90;85.30;;;;;;4930314;29;20400;-81
2023/12/17 13:50:43;;;;;;;0.10;0.10;;;3.90;85.20;;;;;;4927052;29;20016;-78
2023/12/17 13:53:09;;;;;;;0.20;0.20;;;3.90;85.70;;;;;;4905817;29;20039;-77
2023/12/17 13:55:34;;;;;;;0.10;0.10;;;3.90;85.60;;;;;;4925210;29;20027;-78
2023/12/17 13:58:00;;;;;;;0.10;0.10;;;3.90;85.20;;;;;;4908905;29;20040;-77
2023/12/17 14:00:26;;;;;;;0.10;0.10;;;4.00;85.50;;;;;;4923640;29;20043;-77
2023/12/17 14:02:52;;;;;;;0.20;0.20;;;4.10;85.20;;;;;;4925973;29;20036;-77
2023/12/17 14:05:19;;;;;;;0.17;0.17;;;4.10;85.30;;;;;;4925526;29;20031;-77
2023/12/17 14:07:44;;;;;;;0.10;0.10;;;4.00;85.40;;;;;;4930735;29;20027;-78
2023/12/17 14:10:10;;;;;;;0.10;0.10;;;4.00;85.40;;;;;;4929774;29;20043;-77
2023/12/17 14:12:37;;;;;;;0.20;0.20;;;4.00;85.10;;;;;;4931017;29;20111;-78
2023/12/17 14:15:04;;;;;;;0.10;0.10;;;4.00;84.90;;;;;;4902209;29;20566;-78
2023/12/17 14:17:30;;;;;;;0.10;0.10;;;4.00;85.20;;;;;;4928435;29;20032;-78
2023/12/17 14:19:55;;;;;;;0.10;0.10;;;4.00;85.10;;;;;;4928173;29;20440;-77
2023/12/17 14:22:21;;;;;;;0.10;0.10;;;4.00;85.10;;;;;;4928942;29;20040;-78
2023/12/17 14:24:48;;;;;;;0.20;0.20;;;4.00;85.10;;;;;;4917831;29;20055;-79
2023/12/17 14:27:13;;;;;;;0.10;0.10;;;4.10;85.40;;;;;;4929335;29;20038;-78
2023/12/17 14:29:42;;;;;;;0.10;0.10;;;4.10;84.70;;;;;;4922347;29;21196;-78
2023/12/17 14:32:09;;;;;;;0.20;0.20;;;4.00;84.70;;;;;;4920748;29;20150;-77
2023/12/17 14:34:36;;;;;;;0.10;0.10;;;3.80;85.40;;;;;;4931365;29;20055;-78
2023/12/17 14:37:03;;;;;;;0.10;0.10;;;3.80;85.90;;;;;;4924436;29;20044;-78
2023/12/17 14:39:28;;;;;;;0.10;0.10;;;3.80;85.60;;;;;;4926204;29;20108;-77
2023/12/17 14:41:54;;;;;;;0.20;0.20;;;3.80;85.70;;;;;;4925581;29;20502;-78
2023/12/17 14:44:19;;;;;;;0.10;0.10;;;3.90;86.00;;;;;;4918011;29;20028;-78
2023/12/17 14:46:45;;;;;;;0.10;0.10;;;4.00;85.90;;;;;;4918180;29;20470;-78
2023/12/17 14:49:11;;;;;;;0.10;0.10;;;4.10;85.60;;;;;;4922278;29;20028;-78
2023/12/17 14:51:36;;;;;;;0.10;0.10;;;4.00;85.70;;;;;;4920309;29;20039;-78
2023/12/17 14:54:02;;;;;;;0.10;0.10;;;4.00;85.60;;;;;;4926005;29;20028;-78
2023/12/17 14:56:28;;;;;;;0.10;0.10;;;4.00;85.40;;;;;;4927148;29;20042;-78
2023/12/17 14:58:56;;;;;;;0.10;0.10;;;3.90;85.70;;;;;;4924431;29;20036;-78
2023/12/17 15:01:25;;;;;;;0.10;0.10;;;3.90;85.70;;;;;;4928431;29;20052;-78
2023/12/17 15:03:51;;;;;;;0.10;0.10;;;4.00;85.80;;;;;;4924440;29;20081;-78
2023/12/17 15:06:16;;;;;;;0.13;0.13;;;4.00;85.80;;;;;;4926078;29;20036;-78
2023/12/17 15:08:42;;;;;;;0.10;0.10;;;4.00;85.90;;;;;;4923784;29;20091;-77
2023/12/17 15:11:08;;;;;;;0.20;0.20;;;4.00;85.80;;;;;;4930742;29;20023;-78
2023/12/17 15:13:35;;;;;;;0.10;0.10;;;4.00;85.70;;;;;;4923553;29;20035;-76
2023/12/17 15:16:02;;;;;;;0.15;0.15;;;4.00;85.30;;;;;;4922430;29;20043;-75
2023/12/17 15:18:27;;;;;;;0.10;0.10;;;3.90;85.50;;;;;;4921046;29;20394;-75
2023/12/17 15:20:53;;;;;;;0.13;0.13;;;3.80;85.80;;;;;;4922557;29;20032;-75
2023/12/17 15:23:18;;;;;;;0.10;0.10;;;3.90;86.10;;;;;;4930183;29;20114;-75
2023/12/17 15:25:44;;;;;;;0.15;0.15;;;3.90;86.00;;;;;;4927886;29;20071;-76
2023/12/17 15:28:10;;;;;;;0.15;0.15;;;3.90;85.70;;;;;;4928851;29;20086;-77
2023/12/17 15:30:35;;;;;;;0.10;0.10;;;3.80;86.00;;;;;;4931165;29;20141;-76
2023/12/17 15:33:01;;;;;;;0.10;0.10;;;3.80;85.80;;;;;;4924740;29;20565;-76
2023/12/17 15:35:27;;;;;;;0.10;0.10;;;3.80;85.90;;;;;;4906204;29;20059;-75
2023/12/17 15:37:52;;;;;;;0.20;0.20;;;3.80;86.00;;;;;;4926509;29;20031;-76
2023/12/17 15:40:19;;;;;;;0.10;0.10;;;3.70;85.80;;;;;;4938357;29;20039;-76
2023/12/17 15:42:44;;;;;;;0.10;0.10;;;3.60;86.30;;;;;;4949458;29;20115;-76
2023/12/17 15:45:10;;;;;;;0.10;0.10;;;3.60;86.80;;;;;;4922699;29;20127;-74
2023/12/17 15:47:36;;;;;;;0.10;0.10;;;3.70;86.50;;;;;;4923989;29;20111;-76
2023/12/17 15:50:06;;;;;;;0.20;0.20;;;3.70;86.70;;;;;;4940576;29;20067;-75
2023/12/17 15:52:31;;;;;;;0.10;0.10;;;3.80;86.40;;;;;;4911555;29;20059;-78
2023/12/17 15:54:57;;;;;;;0.10;0.10;;;3.90;85.80;;;;;;4922216;29;20710;-75
2023/12/17 15:57:25;;;;;;;0.10;0.10;;;3.70;85.90;;;;;;4914867;29;20032;-83
2023/12/17 15:59:51;;;;;;;0.20;0.20;;;3.70;86.30;;;;;;4937104;29;20062;-77
2023/12/17 16:02:21;;;;;;;0.17;0.17;;;3.70;86.70;;;;;;4935356;29;20028;-80
2023/12/17 16:04:47;;;;;;;0.20;0.20;;;3.80;86.50;;;;;;4932153;29;20027;-78
2023/12/17 16:07:13;;;;;;;0.10;0.10;;;3.80;86.50;;;;;;4931274;29;20059;-77
2023/12/17 16:09:39;;;;;;;0.20;0.20;;;3.90;86.40;;;;;;4935502;29;20067;-75
2023/12/17 16:12:05;;;;;;;0.10;0.10;;;3.80;86.00;;;;;;4933727;29;20106;-74
2023/12/17 16:14:31;;;;;;;0.10;0.10;;;3.90;86.00;;;;;;4926496;29;20054;-76
2023/12/17 16:16:57;;;;;;;0.10;0.10;;;3.80;86.10;;;;;;4913585;29;20031;-76
2023/12/17 16:19:23;;;;;;;0.10;0.10;;;3.80;86.20;;;;;;4930751;29;20553;-76
2023/12/17 16:21:52;;;;;;;0.17;0.17;;;3.70;85.70;;;;;;4931925;29;20032;-75
2023/12/17 16:24:18;;;;;;;0.20;0.20;;;3.70;86.20;;;;;;4902209;29;20036;-75
2023/12/17 16:26:44;;;;;;;0.10;0.10;;;3.70;86.30;;;;;;4928406;29;20561;-76
2023/12/17 16:29:12;;;;;;;0.10;0.10;;;3.70;86.30;;;;;;4912643;29;20021;-75
2023/12/17 16:31:38;;;;;;;0.20;0.20;;;3.70;86.50;;;;;;4929501;29;20557;-74
2023/12/17 16:34:03;;;;;;;0.20;0.20;;;3.70;86.40;;;;;;4932721;29;20028;-75
2023/12/17 16:36:38;;;;;;;0.20;0.20;;;3.80;86.30;;;;;;4926848;29;20182;-76
2023/12/17 16:39:04;;;;;;;0.10;0.10;;;3.80;86.20;;;;;;4930417;29;20063;-75
2023/12/17 16:41:29;;;;;;;0.13;0.13;;;3.80;86.30;;;;;;4914936;29;20035;-75
2023/12/17 16:43:55;;;;;;;0.10;0.10;;;3.80;86.10;;;;;;4925801;29;20047;-76
2023/12/17 16:46:21;;;;;;;0.10;0.10;;;3.70;86.10;;;;;;4926858;29;20575;-76
2023/12/17 16:48:47;;;;;;;0.10;0.10;;;3.70;86.30;;;;;;4924951;29;20021;-75
2023/12/17 16:51:12;;;;;;;0.17;0.17;;;3.70;86.80;;;;;;4915392;29;20055;-75
2023/12/17 16:53:38;;;;;;;0.10;0.10;;;3.70;86.90;;;;;;4930546;29;20055;-75
2023/12/17 16:56:05;;;;;;;0.10;0.10;;;3.80;86.60;;;;;;4928270;29;20032;-75
2023/12/17 16:58:35;;;;;;;0.10;0.10;;;3.80;86.80;;;;;;4928582;29;21525;-75
2023/12/17 17:01:00;;;;;;;0.20;0.20;;;3.80;86.70;;;;;;4929641;29;20027;-76
2023/12/17 17:03:26;;;;;;;0.20;0.20;;;3.80;86.20;;;;;;4928436;29;20032;-75
2023/12/17 17:05:51;;;;;;;0.10;0.10;;;3.80;86.50;;;;;;4915842;29;20028;-77
2023/12/17 17:08:17;;;;;;;0.10;0.10;;;3.80;86.40;;;;;;4932289;29;20154;-77
2023/12/17 17:10:42;;;;;;;0.20;0.20;;;3.80;86.20;;;;;;4932349;29;20046;-76
2023/12/17 17:13:08;;;;;;;0.20;0.20;;;3.80;86.40;;;;;;4931225;29;20028;-76
2023/12/17 17:15:34;;;;;;;0.10;0.10;;;3.80;86.50;;;;;;4930666;29;20038;-75
2023/12/17 17:17:59;;;;;;;0.20;0.20;;;3.80;86.40;;;;;;4928016;29;20035;-75
2023/12/17 17:20:25;;;;;;;0.17;0.17;;;3.80;86.30;;;;;;4931106;29;20036;-75
2023/12/17 17:22:50;;;;;;;0.20;0.20;;;3.80;86.20;;;;;;4929652;29;20062;-75
2023/12/17 17:25:16;;;;;;;0.20;0.20;;;3.80;86.40;;;;;;4915375;29;20039;-76
2023/12/17 17:27:42;;;;;;;0.10;0.10;;;3.80;86.50;;;;;;4929910;29;20040;-75
2023/12/17 17:30:08;;;;;;;0.20;0.20;;;3.90;86.40;;;;;;4928894;29;20031;-76
2023/12/17 17:32:34;;;;;;;0.10;0.10;;;3.90;86.20;;;;;;4931601;29;20122;-75
2023/12/17 17:34:59;;;;;;;0.10;0.10;;;3.80;85.90;;;;;;4929675;29;20060;-75
2023/12/17 17:37:25;;;;;;;0.20;0.20;;;3.80;85.80;;;;;;4926378;29;20039;-75
2023/12/17 17:39:51;;;;;;;0.10;0.10;;;3.80;85.90;;;;;;4933795;29;20039;-76
2023/12/17 17:42:17;;;;;;;0.10;0.10;;;3.70;86.10;;;;;;4929602;29;20060;-75
2023/12/17 17:44:43;;;;;;;0.20;0.20;;;3.70;86.10;;;;;;4929354;29;21392;-75
2023/12/17 17:47:09;;;;;;;0.13;0.13;;;3.70;86.30;;;;;;4912132;29;20099;-75
2023/12/17 17:49:34;;;;;;;0.10;0.10;;;3.70;86.20;;;;;;4929828;29;20032;-75
2023/12/17 17:52:00;;;;;;;0.20;0.20;;;3.70;86.40;;;;;;4910361;29;20024;-76
2023/12/17 17:54:25;;;;;;;0.20;0.20;;;3.70;86.10;;;;;;4929459;29;20394;-75
2023/12/17 17:56:51;;;;;;;0.10;0.10;;;3.70;86.20;;;;;;4924926;29;20040;-76
2023/12/17 17:59:16;;;;;;;0.10;0.10;;;3.70;86.40;;;;;;4909029;29;20122;-76
2023/12/17 18:01:43;;;;;;;0.10;0.10;;;3.70;86.30;;;;;;4930134;29;20028;-76
2023/12/17 18:04:08;;;;;;;0.10;0.10;;;3.70;86.50;;;;;;4912837;29;20031;-76
2023/12/17 18:06:34;;;;;;;0.10;0.10;;;3.70;86.70;;;;;;4913569;29;20032;-77
2023/12/17 18:09:00;;;;;;;0.10;0.10;;;3.70;86.60;;;;;;4924338;29;20032;-77
2023/12/17 18:11:25;;;;;;;0.10;0.10;;;3.70;86.80;;;;;;4930261;29;20139;-76
2023/12/17 18:13:53;;;;;;;0.10;0.10;;;3.70;86.90;;;;;;4928778;29;20016;-76
2023/12/17 18:16:19;;;;;;;0.10;0.10;;;3.80;87.00;;;;;;4910234;29;20382;-77
2023/12/17 18:18:45;;;;;;;0.10;0.10;;;3.80;87.00;;;;;;4931572;29;20032;-76
2023/12/17 18:21:11;;;;;;;0.10;0.10;;;3.80;86.40;;;;;;4928591;29;20111;-77
2023/12/17 18:23:37;;;;;;;0.20;0.20;;;3.70;86.90;;;;;;4929027;29;20050;-76